Upstream stations:
Downstream station:
SHEF ID: CLVO2 Canadian River at Calvin, OK
STATION TYPE:
Regulating: Stage = 17.00, Flow = 48538
PRECIP STAGE RIV-FLOW VOLTAGE BAT-LOAD
in ft cfs volt volt
Ccp-Rev Ccp-Rev Ccp-Rev Ccp-Rev Ccp-Rev
(US/Central)
03/31 00:00 0.00 8.28 2712 12.92 ----
03/31 01:00 0.00 8.26 2679 12.90 ----
03/31 02:00 0.00 8.25 2663 12.86 ----
03/31 03:00 0.00 8.24 2647 12.84 ----
03/31 04:00 0.00 8.24 2647 12.82 ----
03/31 05:00 0.00 8.21 2598 12.81 ----
03/31 06:00 0.00 8.19 2565 12.80 ----
03/31 07:00 0.00 8.17 2532 12.79 ----
03/31 08:00 0.00 8.14 2484 12.82 ----
03/31 09:00 0.00 8.08 2389 13.35 ----
03/31 10:00 0.00 8.07 2374 14.60 ----
03/31 11:00 0.00 8.03 2313 14.57 ----
03/31 12:00 0.00 8.01 2282 14.52 ----
03/31 13:00 0.00 7.95 2190 14.05 ----
03/31 14:00 0.00 7.91 2130 14.03 ----
03/31 15:00 0.00 7.88 2086 13.99 ----
03/31 16:00 0.00 7.89 2101 13.94 ----
03/31 17:00 0.00 7.89 2101 13.90 ----
03/31 18:00 0.00 7.88 2086 13.69 ----
03/31 19:00 0.00 7.88 2086 13.24 ----
03/31 20:00 0.00 7.88 2086 13.11 ----
03/31 21:00 0.00 7.89 2101 13.07 ----
03/31 22:00 0.00 7.89 2101 13.04 ----
03/31 23:00 0.00 7.90 2116 13.02 ----